IGS weather

Ingolstadt Manching Airport
Manching, Bavaria, Germany

Public forecast

Using degrees Celsius for public forecast. Weather courtesy of forecast.io.

Current aviation weather report (METAR) for Ingolstadt Manching Airport

Retrieved 2019/10/15 07:20 UTC (9 minutes ago):

ETSI 150720Z 07004KT 0200 FG VV001 09/08 Q1010 RED RED BECMG YLO

Aviation forecast (TAF) for Ingolstadt Manching Airport

Forecast is more than 12 hours old.

Retrieved 2015/01/09 12:33 UTC (5 years ago):

TAF ETSI 091115Z 0912/0924 24015G25KT 9999 NSW FEW020 SCT050 BKN090 BECMG 0912/0914 24020G35KT 9999 -RA FEW020 BKN040 BKN080 TEMPO 0915/0924 26025G45KT 8000 RA FEW012 BKN020 OVC050